Time;durP1;ratioP1;P1;durP2;ratioP2;P2;SDS_P1;SDS_P2;PMS_P1;PMS_P2;Temp;Humidity;BMP_temperature;BMP_pressure;BME280_temperature;BME280_humidity;BME280_pressure;Samples;Min_cycle;Max_cycle;Signal;HPM_P1;HPM_P2
2023/02/12 00:01:10;;;;;;;14.77;6.28;;;9.60;99.90;;;;;;5022001;28;20060;-65
2023/02/12 00:03:36;;;;;;;14.55;6.53;;;9.60;99.90;;;;;;5029904;28;20040;-65
2023/02/12 00:06:02;;;;;;;14.77;6.55;;;9.60;99.90;;;;;;5020443;28;20030;-66
2023/02/12 00:08:28;;;;;;;13.95;7.43;;;9.60;99.90;;;;;;5017124;28;20524;-66
2023/02/12 00:10:54;;;;;;;18.13;8.57;;;9.60;99.90;;;;;;5028029;28;20021;-66
2023/02/12 00:13:20;;;;;;;10.30;5.65;;;9.60;99.90;;;;;;5022103;28;20029;-67
2023/02/12 00:15:45;;;;;;;12.98;5.82;;;9.60;99.90;;;;;;5023861;28;20024;-67
2023/02/12 00:18:11;;;;;;;15.05;6.55;;;9.60;99.90;;;;;;5020502;28;20037;-67
2023/02/12 00:20:37;;;;;;;14.13;5.90;;;9.60;99.90;;;;;;5034967;28;20028;-66
2023/02/12 00:23:03;;;;;;;15.98;7.43;;;9.60;99.90;;;;;;5029558;28;20022;-67
2023/02/12 00:25:29;;;;;;;11.50;5.43;;;9.50;99.90;;;;;;5021820;28;20037;-66
2023/02/12 00:27:55;;;;;;;14.65;5.53;;;9.60;99.90;;;;;;5024181;28;20511;-66
2023/02/12 00:30:21;;;;;;;12.88;5.47;;;9.60;99.90;;;;;;5012940;28;20544;-67
2023/02/12 00:32:46;;;;;;;11.75;5.35;;;9.50;99.90;;;;;;5023067;28;20029;-66
2023/02/12 00:35:12;;;;;;;14.85;6.57;;;9.50;99.90;;;;;;5018079;28;20032;-67
2023/02/12 00:37:38;;;;;;;14.18;5.55;;;9.50;99.90;;;;;;5040762;28;20098;-67
2023/02/12 00:40:05;;;;;;;16.27;6.18;;;9.50;99.90;;;;;;5027405;28;20034;-66
2023/02/12 00:42:30;;;;;;;15.25;6.20;;;9.50;99.90;;;;;;5018494;28;20117;-66
2023/02/12 00:44:56;;;;;;;14.02;5.22;;;9.60;99.90;;;;;;5023305;28;20504;-67
2023/02/12 00:47:22;;;;;;;13.10;5.70;;;9.60;99.90;;;;;;5020137;28;20474;-66
2023/02/12 00:49:47;;;;;;;13.73;5.85;;;9.50;99.90;;;;;;5023943;28;20033;-66
2023/02/12 00:52:13;;;;;;;11.77;5.70;;;9.50;99.90;;;;;;5026789;28;20472;-67
2023/02/12 00:54:39;;;;;;;12.80;6.50;;;9.50;99.90;;;;;;5026332;28;20026;-67
2023/02/12 00:57:04;;;;;;;15.57;5.75;;;9.40;99.90;;;;;;5026201;28;20077;-66
2023/02/12 00:59:30;;;;;;;12.82;6.03;;;9.40;99.90;;;;;;5029346;28;20100;-67
2023/02/12 01:01:56;;;;;;;13.05;5.93;;;9.40;99.90;;;;;;5026982;28;20464;-66
2023/02/12 01:04:22;;;;;;;16.85;7.07;;;9.40;99.90;;;;;;5027363;28;20022;-67
2023/02/12 01:06:47;;;;;;;14.65;6.25;;;9.40;99.90;;;;;;5029608;28;20429;-66
2023/02/12 01:09:13;;;;;;;14.85;5.80;;;9.40;99.90;;;;;;5033914;28;20556;-66
2023/02/12 01:11:39;;;;;;;14.60;6.00;;;9.40;99.90;;;;;;5026539;28;20492;-68
2023/02/12 01:14:05;;;;;;;13.50;6.93;;;9.30;99.90;;;;;;5027506;28;20111;-67
2023/02/12 01:16:32;;;;;;;11.38;5.38;;;9.40;99.90;;;;;;5022073;28;20034;-68
2023/02/12 01:18:59;;;;;;;14.13;6.13;;;9.40;99.90;;;;;;5027558;28;20041;-67
2023/02/12 01:21:30;;;;;;;13.80;5.57;;;9.50;99.90;;;;;;5029506;28;20022;-67
2023/02/12 01:23:56;;;;;;;15.52;5.90;;;9.50;99.90;;;;;;5029836;28;20109;-67
2023/02/12 01:26:23;;;;;;;13.30;4.95;;;9.50;99.90;;;;;;5033177;28;20025;-67
2023/02/12 01:28:54;;;;;;;14.70;5.70;;;9.50;99.90;;;;;;5029881;28;20041;-67
2023/02/12 01:31:23;;;;;;;12.35;4.93;;;9.50;99.90;;;;;;5026054;28;20026;-66
2023/02/12 01:33:50;;;;;;;13.02;5.18;;;9.50;99.90;;;;;;5028702;28;20071;-67
2023/02/12 01:36:16;;;;;;;12.75;5.88;;;9.50;99.90;;;;;;5030081;28;20029;-67
2023/02/12 01:38:42;;;;;;;10.75;4.80;;;9.50;99.90;;;;;;5032978;28;20029;-67
2023/02/12 01:41:20;;;;;;;13.35;5.43;;;9.60;99.90;;;;;;5030370;28;20377;-67
2023/02/12 01:44:05;;;;;;;14.00;6.10;;;9.60;99.90;;;;;;5032363;28;20043;-67
2023/02/12 01:46:31;;;;;;;11.93;6.07;;;9.60;99.90;;;;;;5022329;28;20030;-69
2023/02/12 01:48:57;;;;;;;12.07;5.97;;;9.60;99.90;;;;;;5026843;28;20087;-67
2023/02/12 01:51:24;;;;;;;17.55;6.28;;;9.60;99.90;;;;;;5028473;28;20030;-67
2023/02/12 01:53:53;;;;;;;14.57;6.20;;;9.60;99.90;;;;;;5031580;28;20037;-66
2023/02/12 01:56:19;;;;;;;11.05;5.45;;;9.60;99.90;;;;;;5029985;28;20101;-67
2023/02/12 01:58:47;;;;;;;11.90;5.40;;;9.60;99.90;;;;;;5032182;28;20041;-67
2023/02/12 02:01:19;;;;;;;12.80;5.18;;;9.50;99.90;;;;;;5021779;28;20108;-66
2023/02/12 02:03:48;;;;;;;14.35;5.55;;;9.50;99.90;;;;;;5023798;28;20513;-68
2023/02/12 02:06:47;;;;;;;21.52;6.80;;;9.50;99.90;;;;;;5022568;28;20491;-67
2023/02/12 02:09:13;;;;;;;15.55;5.55;;;9.60;99.90;;;;;;5009469;28;20444;-67
2023/02/12 02:14:33;;;;;;;12.43;6.10;;;9.50;99.90;;;;;;5024108;28;20057;-67
2023/02/12 02:17:27;;;;;;;16.83;5.85;;;9.50;99.90;;;;;;5022515;28;20034;-67
2023/02/12 02:20:27;;;;;;;16.30;5.20;;;9.50;99.90;;;;;;5021977;28;20277;-66
2023/02/12 02:23:33;;;;;;;13.38;5.38;;;9.50;99.90;;;;;;5007726;28;20421;-67
2023/02/12 02:26:26;;;;;;;14.50;5.45;;;9.40;99.90;;;;;;5017226;28;20052;-67
2023/02/12 02:29:37;;;;;;;13.73;5.10;;;9.40;99.90;;;;;;5034209;28;20537;-67
2023/02/12 02:32:13;;;;;;;13.82;6.00;;;9.40;99.90;;;;;;5020877;28;20136;-67
2023/02/12 02:34:54;;;;;;;15.65;5.43;;;9.40;99.90;;;;;;5019833;28;20044;-68
2023/02/12 02:37:31;;;;;;;13.02;6.03;;;9.40;99.90;;;;;;5021996;28;20052;-67
2023/02/12 02:40:11;;;;;;;17.17;5.80;;;9.40;99.90;;;;;;5020151;28;20539;-67
2023/02/12 02:42:51;;;;;;;11.60;5.63;;;9.40;99.90;;;;;;5026897;28;20030;-67
2023/02/12 02:45:38;;;;;;;13.85;6.05;;;9.40;99.90;;;;;;5014502;28;20461;-67
2023/02/12 02:48:12;;;;;;;18.52;5.72;;;9.40;99.90;;;;;;5017754;28;20370;-67
2023/02/12 02:50:45;;;;;;;11.47;5.50;;;9.40;99.90;;;;;;5034462;28;20160;-67
2023/02/12 02:53:17;;;;;;;15.25;5.53;;;9.30;99.90;;;;;;5022164;28;20041;-67
2023/02/12 02:55:48;;;;;;;16.92;5.78;;;9.30;99.90;;;;;;5040104;28;20472;-67
2023/02/12 02:58:19;;;;;;;15.68;5.78;;;9.30;99.90;;;;;;5019862;28;20512;-67
2023/02/12 03:00:57;;;;;;;15.63;6.22;;;9.30;99.90;;;;;;5014142;28;20434;-68
2023/02/12 03:03:38;;;;;;;15.50;5.30;;;9.30;99.90;;;;;;5005228;28;20100;-67
2023/02/12 03:06:11;;;;;;;11.77;5.97;;;9.30;99.90;;;;;;5010775;28;20030;-67
2023/02/12 03:08:41;;;;;;;15.68;6.15;;;9.30;99.90;;;;;;4996096;28;20069;-67
2023/02/12 03:11:16;;;;;;;19.60;5.63;;;9.30;99.90;;;;;;5006568;28;20462;-67
2023/02/12 03:13:51;;;;;;;19.67;6.07;;;9.30;99.90;;;;;;5013990;28;20052;-67
2023/02/12 03:16:24;;;;;;;15.65;5.30;;;9.30;99.90;;;;;;5009153;28;20030;-67
2023/02/12 03:19:20;;;;;;;17.90;6.35;;;9.30;99.90;;;;;;5005498;28;20390;-67
2023/02/12 03:21:53;;;;;;;11.70;5.47;;;9.30;99.90;;;;;;4997578;28;20026;-67
2023/02/12 03:24:28;;;;;;;14.20;5.63;;;9.30;99.90;;;;;;5010031;28;20105;-67
2023/02/12 03:27:03;;;;;;;14.23;5.38;;;9.30;99.90;;;;;;5012225;28;20072;-67
2023/02/12 03:29:29;;;;;;;17.20;6.50;;;9.30;99.90;;;;;;5011090;28;20046;-67
2023/02/12 03:32:05;;;;;;;17.65;5.93;;;9.30;99.90;;;;;;5008841;28;20060;-67
2023/02/12 03:34:52;;;;;;;14.02;5.88;;;9.30;99.90;;;;;;5010164;28;20056;-67
2023/02/12 03:37:44;;;;;;;14.95;5.93;;;9.30;99.90;;;;;;5012683;28;20029;-67
2023/02/12 03:40:16;;;;;;;12.48;6.20;;;9.20;99.90;;;;;;5000476;28;20065;-67
2023/02/12 03:42:52;;;;;;;14.02;5.68;;;9.30;99.90;;;;;;5007794;28;20053;-67
2023/02/12 03:45:49;;;;;;;15.98;6.38;;;9.30;99.90;;;;;;5010575;28;20034;-67
2023/02/12 03:48:27;;;;;;;16.48;6.95;;;9.30;99.90;;;;;;5016587;28;20587;-67
2023/02/12 03:51:20;;;;;;;17.55;6.50;;;9.30;99.90;;;;;;5008465;28;20578;-67
2023/02/12 03:53:47;;;;;;;18.70;5.65;;;9.30;99.90;;;;;;4998833;28;20034;-68
2023/02/12 03:56:36;;;;;;;13.50;6.10;;;9.20;99.90;;;;;;4993259;28;20448;-67
2023/02/12 03:59:03;;;;;;;22.40;7.18;;;9.20;99.90;;;;;;5014938;28;20044;-67
2023/02/12 04:01:30;;;;;;;16.30;6.72;;;9.20;99.90;;;;;;5023458;28;20030;-67
2023/02/12 04:03:57;;;;;;;18.85;6.00;;;9.20;99.90;;;;;;5022633;28;20040;-68
2023/02/12 04:06:25;;;;;;;16.42;6.18;;;9.20;99.90;;;;;;5029172;28;20468;-67
2023/02/12 04:08:53;;;;;;;17.42;6.95;;;9.20;99.90;;;;;;5027315;28;20408;-68
2023/02/12 04:11:44;;;;;;;13.98;5.18;;;9.20;99.90;;;;;;5027999;28;20036;-67
2023/02/12 04:14:34;;;;;;;16.25;7.35;;;9.20;99.90;;;;;;5026168;28;20041;-67
2023/02/12 04:17:39;;;;;;;15.75;6.50;;;9.20;99.90;;;;;;5017336;28;20505;-67
2023/02/12 04:20:04;;;;;;;13.23;5.38;;;9.20;99.90;;;;;;5017103;28;20160;-67
2023/02/12 04:22:52;;;;;;;18.17;6.88;;;9.20;99.90;;;;;;5028906;28;20125;-67
2023/02/12 04:25:31;;;;;;;18.27;6.18;;;9.30;99.90;;;;;;5029437;28;20037;-67
2023/02/12 04:28:20;;;;;;;16.88;6.65;;;9.20;99.90;;;;;;5029529;28;20030;-68
2023/02/12 04:30:55;;;;;;;16.40;6.63;;;9.20;99.90;;;;;;5022916;28;20080;-68
2023/02/12 04:33:23;;;;;;;16.63;6.38;;;9.20;99.90;;;;;;5021917;28;20025;-68
2023/02/12 04:35:58;;;;;;;12.27;5.13;;;9.20;99.90;;;;;;5034280;28;20396;-68
2023/02/12 04:38:33;;;;;;;13.65;5.70;;;9.20;99.90;;;;;;5024311;28;20068;-67
2023/02/12 04:40:59;;;;;;;;;;;9.10;99.90;;;;;;5029036;28;20033;-68
2023/02/12 04:43:29;;;;;;;14.85;5.50;;;9.10;99.90;;;;;;5022457;28;19909;-67
2023/02/12 04:45:54;;;;;;;13.80;6.53;;;9.00;99.90;;;;;;5021367;28;20032;-68
2023/02/12 04:48:21;;;;;;;14.40;6.43;;;8.90;99.90;;;;;;5022472;28;20482;-67
2023/02/12 04:50:46;;;;;;;12.50;5.03;;;8.90;99.90;;;;;;5011431;28;20028;-67
2023/02/12 04:53:12;;;;;;;12.63;5.22;;;8.90;99.90;;;;;;5034434;28;20381;-67
2023/02/12 04:55:37;;;;;;;13.63;6.25;;;8.90;99.90;;;;;;5032054;28;20057;-67
2023/02/12 04:58:04;;;;;;;12.63;5.28;;;8.90;99.90;;;;;;5035403;28;20080;-67
2023/02/12 05:00:29;;;;;;;18.15;6.70;;;8.90;99.90;;;;;;5015231;28;20055;-67
2023/02/12 05:02:55;;;;;;;16.13;5.15;;;8.90;99.90;;;;;;5033651;28;20022;-67
2023/02/12 05:05:21;;;;;;;15.07;5.60;;;9.00;99.90;;;;;;5030185;28;20484;-67
2023/02/12 05:07:47;;;;;;;14.48;5.93;;;9.00;99.90;;;;;;5035191;28;20029;-67
2023/02/12 05:10:12;;;;;;;14.23;5.53;;;9.00;99.90;;;;;;5026446;28;20029;-67
2023/02/12 05:12:38;;;;;;;16.13;6.40;;;9.00;99.90;;;;;;5030171;28;20018;-67
2023/02/12 05:15:04;;;;;;;16.27;5.65;;;9.00;99.90;;;;;;5025316;28;20485;-67
2023/02/12 05:17:30;;;;;;;12.13;5.88;;;9.00;99.90;;;;;;5029675;28;20434;-67
2023/02/12 05:19:55;;;;;;;10.80;5.53;;;9.00;99.90;;;;;;5013202;28;20052;-67
2023/02/12 05:22:21;;;;;;;14.57;6.25;;;9.10;99.90;;;;;;5032103;28;20445;-67
2023/02/12 05:24:46;;;;;;;14.27;5.50;;;9.10;99.90;;;;;;5025777;28;20235;-67
2023/02/12 05:27:12;;;;;;;17.77;5.75;;;9.10;99.90;;;;;;5029963;28;20484;-67
2023/02/12 05:29:38;;;;;;;11.10;4.78;;;9.10;99.90;;;;;;5030353;28;20029;-67
2023/02/12 05:32:05;;;;;;;12.98;6.07;;;9.10;99.90;;;;;;5012909;28;20112;-67
2023/02/12 05:34:31;;;;;;;20.88;7.60;;;9.10;99.90;;;;;;5025277;28;20052;-68
2023/02/12 05:36:57;;;;;;;16.05;6.15;;;9.10;99.90;;;;;;5032063;28;20033;-67
2023/02/12 05:39:23;;;;;;;14.50;5.55;;;9.20;99.90;;;;;;5015266;28;20059;-67
2023/02/12 05:41:48;;;;;;;14.48;5.78;;;9.20;99.90;;;;;;5033984;28;20487;-67
2023/02/12 05:44:14;;;;;;;23.55;12.20;;;9.20;99.90;;;;;;5032341;28;20029;-67
2023/02/12 05:46:41;;;;;;;18.80;7.32;;;9.20;99.90;;;;;;5028102;28;20469;-67
2023/02/12 05:49:07;;;;;;;10.68;5.78;;;9.20;99.90;;;;;;5011182;28;20053;-67
2023/02/12 05:51:33;;;;;;;15.15;5.55;;;9.20;99.90;;;;;;5029351;28;20494;-67
2023/02/12 05:54:02;;;;;;;12.98;4.60;;;9.20;99.90;;;;;;5026495;28;20064;-67
2023/02/12 05:56:34;;;;;;;18.65;5.72;;;9.20;99.90;;;;;;5029395;28;20100;-67
2023/02/12 05:59:03;;;;;;;17.80;6.25;;;9.30;99.90;;;;;;5029296;28;20055;-67
2023/02/12 06:01:32;;;;;;;12.30;4.47;;;9.30;99.90;;;;;;5025563;28;20032;-67
2023/02/12 06:04:02;;;;;;;14.60;5.75;;;9.30;99.90;;;;;;5030794;28;20029;-67
2023/02/12 06:06:29;;;;;;;12.55;5.10;;;9.30;99.90;;;;;;5031064;28;20028;-67
2023/02/12 06:08:55;;;;;;;13.27;5.50;;;9.30;99.90;;;;;;5031035;28;20087;-67
2023/02/12 06:11:20;;;;;;;13.27;5.90;;;9.20;99.90;;;;;;5033156;28;20365;-67
2023/02/12 06:13:47;;;;;;;14.55;5.72;;;9.20;99.90;;;;;;5027402;28;20021;-67
2023/02/12 06:16:24;;;;;;;14.63;5.93;;;9.20;99.90;;;;;;5027925;28;20029;-67
2023/02/12 06:18:51;;;;;;;13.52;5.85;;;9.20;99.90;;;;;;5031335;28;20033;-67
2023/02/12 06:21:18;;;;;;;19.52;6.03;;;9.20;99.90;;;;;;5027296;28;20032;-67
2023/02/12 06:23:45;;;;;;;15.90;5.78;;;9.30;99.90;;;;;;5023845;28;20033;-67
2023/02/12 06:26:10;;;;;;;15.13;6.20;;;9.30;99.90;;;;;;5024582;28;20465;-68
2023/02/12 06:28:36;;;;;;;17.67;6.68;;;9.30;99.90;;;;;;5027121;28;20030;-67
2023/02/12 06:31:02;;;;;;;14.90;5.60;;;9.30;99.90;;;;;;5010852;28;20508;-67
2023/02/12 06:33:28;;;;;;;14.10;5.35;;;9.30;99.90;;;;;;5028466;28;20370;-67
2023/02/12 06:35:54;;;;;;;12.80;5.40;;;9.30;99.90;;;;;;5028396;28;20029;-67
2023/02/12 06:38:20;;;;;;;16.70;5.47;;;9.40;99.90;;;;;;5030358;28;20047;-67
2023/02/12 06:40:45;;;;;;;11.90;4.68;;;9.40;99.90;;;;;;5026300;28;20064;-67
2023/02/12 06:43:11;;;;;;;15.95;5.55;;;9.40;99.90;;;;;;5032080;28;20041;-67
2023/02/12 06:45:37;;;;;;;13.98;5.53;;;9.40;99.90;;;;;;5026738;28;20061;-67
2023/02/12 06:48:03;;;;;;;16.92;6.20;;;9.40;99.90;;;;;;5028723;28;20021;-67
2023/02/12 06:50:29;;;;;;;15.40;5.93;;;9.30;99.90;;;;;;5029259;28;20045;-63
2023/02/12 06:52:54;;;;;;;15.05;5.72;;;9.30;99.90;;;;;;5031730;28;20092;-65
2023/02/12 06:55:20;;;;;;;21.27;5.82;;;9.40;99.90;;;;;;5025939;28;20546;-66
2023/02/12 06:57:45;;;;;;;15.63;6.07;;;9.40;99.90;;;;;;5027844;28;20404;-66
2023/02/12 07:00:12;;;;;;;14.35;5.55;;;9.40;99.90;;;;;;5026579;28;20045;-66
2023/02/12 07:02:37;;;;;;;22.17;5.95;;;9.40;99.90;;;;;;5028256;28;20022;-66
2023/02/12 07:05:03;;;;;;;19.23;6.45;;;9.40;99.90;;;;;;5029758;28;20030;-66
2023/02/12 07:07:29;;;;;;;30.35;6.15;;;9.40;99.90;;;;;;5026793;28;20032;-66
2023/02/12 07:09:54;;;;;;;12.57;4.85;;;9.40;99.90;;;;;;5026043;28;20436;-66
2023/02/12 07:12:20;;;;;;;16.67;5.50;;;9.40;99.90;;;;;;5002679;28;20030;-63
2023/02/12 07:14:45;;;;;;;13.88;5.60;;;9.30;99.90;;;;;;5037074;28;20029;-66
2023/02/12 07:17:11;;;;;;;12.90;5.80;;;9.30;99.90;;;;;;5032259;28;20488;-66
2023/02/12 07:19:37;;;;;;;16.13;5.85;;;9.40;99.90;;;;;;5025484;28;20033;-65
2023/02/12 07:22:03;;;;;;;13.68;5.93;;;9.40;99.90;;;;;;5042283;28;20029;-65
2023/02/12 07:24:29;;;;;;;20.15;7.07;;;9.30;99.90;;;;;;5035116;28;20108;-65
2023/02/12 07:26:54;;;;;;;15.30;5.93;;;9.30;99.90;;;;;;5038739;28;20063;-66
2023/02/12 07:29:20;;;;;;;13.55;5.55;;;9.30;99.90;;;;;;5022072;28;20041;-66
2023/02/12 07:31:45;;;;;;;12.75;4.82;;;9.30;99.90;;;;;;5018596;28;20373;-66
2023/02/12 07:34:11;;;;;;;19.73;6.75;;;9.30;99.90;;;;;;5023819;28;20052;-66
2023/02/12 07:36:37;;;;;;;16.00;5.60;;;9.30;99.90;;;;;;5018549;28;20191;-66
2023/02/12 07:39:04;;;;;;;13.75;6.00;;;9.40;99.90;;;;;;5026323;28;20038;-66
2023/02/12 07:41:34;;;;;;;17.00;6.20;;;9.40;99.90;;;;;;5021731;28;20030;-66
2023/02/12 07:44:09;;;;;;;15.95;5.53;;;9.40;99.90;;;;;;5026338;28;20380;-66
2023/02/12 07:46:45;;;;;;;12.13;6.13;;;9.50;99.90;;;;;;5022129;28;20030;-66
2023/02/12 07:49:19;;;;;;;14.82;5.57;;;9.50;99.90;;;;;;5034414;28;20041;-66
2023/02/12 07:51:45;;;;;;;16.17;6.30;;;9.50;99.90;;;;;;5007730;28;20033;-67
2023/02/12 07:54:12;;;;;;;17.90;6.28;;;9.50;99.90;;;;;;5020673;28;20100;-66
2023/02/12 07:56:39;;;;;;;12.27;5.47;;;9.60;99.90;;;;;;5026049;28;20033;-67
2023/02/12 07:59:09;;;;;;;16.30;5.90;;;9.60;99.90;;;;;;5025832;28;20451;-65
2023/02/12 08:01:38;;;;;;;17.05;6.82;;;9.60;99.90;;;;;;5022982;28;20021;-65
2023/02/12 08:04:09;;;;;;;13.85;5.28;;;9.70;99.90;;;;;;5017515;28;20025;-67
2023/02/12 08:06:38;;;;;;;13.07;5.28;;;9.70;99.90;;;;;;5032090;28;20110;-66
2023/02/12 08:09:07;;;;;;;15.23;5.43;;;9.70;99.90;;;;;;5034369;28;20041;-67
2023/02/12 08:11:33;;;;;;;12.93;5.32;;;9.80;99.90;;;;;;5017976;28;20400;-67
2023/02/12 08:13:59;;;;;;;14.35;5.53;;;9.80;99.90;;;;;;5035521;28;20473;-66
2023/02/12 08:16:27;;;;;;;12.02;4.72;;;9.70;99.90;;;;;;5036586;28;20116;-66
2023/02/12 08:18:54;;;;;;;17.13;6.60;;;9.80;99.90;;;;;;5035632;28;20041;-66
2023/02/12 08:21:25;;;;;;;10.82;5.65;;;9.90;99.90;;;;;;5015449;28;20025;-66
2023/02/12 08:23:53;;;;;;;15.32;6.35;;;9.80;99.90;;;;;;5029169;28;20509;-66
2023/02/12 08:26:23;;;;;;;13.15;6.22;;;9.80;99.90;;;;;;5036931;28;20026;-66
2023/02/12 08:28:55;;;;;;;13.13;5.90;;;9.80;99.90;;;;;;5033448;28;20039;-66
2023/02/12 08:31:26;;;;;;;12.48;7.22;;;9.80;99.90;;;;;;5024944;28;20029;-66
2023/02/12 08:33:53;;;;;;;14.18;5.43;;;9.80;99.90;;;;;;5033750;28;20344;-66
2023/02/12 08:36:21;;;;;;;16.55;5.88;;;9.90;99.90;;;;;;5025774;28;20029;-66
2023/02/12 08:38:47;;;;;;;17.55;5.45;;;9.90;99.90;;;;;;5026575;28;20037;-66
2023/02/12 08:41:16;;;;;;;13.57;5.93;;;10.00;99.90;;;;;;5024723;28;20052;-66
2023/02/12 08:43:43;;;;;;;16.42;5.63;;;10.00;99.90;;;;;;5023615;28;20523;-66
2023/02/12 08:46:10;;;;;;;19.20;5.50;;;10.10;99.90;;;;;;5016366;28;20417;-66
2023/02/12 08:48:36;;;;;;;13.88;5.75;;;10.10;99.90;;;;;;5017572;28;20045;-67
2023/02/12 08:51:11;;;;;;;13.27;5.40;;;10.10;99.90;;;;;;5030742;28;20032;-66
2023/02/12 08:53:38;;;;;;;13.13;5.47;;;10.20;99.90;;;;;;5016792;28;20260;-67
2023/02/12 08:56:05;;;;;;;16.73;5.50;;;10.10;99.90;;;;;;5026757;28;20029;-66
2023/02/12 08:58:31;;;;;;;14.55;5.40;;;10.10;99.90;;;;;;5023595;28;20335;-65
2023/02/12 09:00:57;;;;;;;13.20;6.53;;;10.10;99.90;;;;;;5025963;28;20037;-66
2023/02/12 09:03:23;;;;;;;15.65;5.78;;;10.10;99.90;;;;;;5025689;28;20021;-66
2023/02/12 09:05:49;;;;;;;19.80;7.07;;;10.20;99.90;;;;;;5039110;28;20029;-66
2023/02/12 09:08:14;;;;;;;17.50;6.05;;;10.20;99.90;;;;;;5031980;28;20389;-66
2023/02/12 09:10:41;;;;;;;16.45;6.50;;;10.20;99.90;;;;;;5018155;28;20032;-66
2023/02/12 09:13:07;;;;;;;13.27;5.25;;;10.30;99.90;;;;;;5037877;28;20021;-66
2023/02/12 09:15:44;;;;;;;12.15;4.85;;;10.30;99.90;;;;;;5021169;28;20033;-66
2023/02/12 09:18:11;;;;;;;16.58;5.88;;;10.40;99.90;;;;;;5031279;28;20040;-66
2023/02/12 09:20:38;;;;;;;17.17;6.18;;;10.40;99.90;;;;;;5018673;28;20381;-66
2023/02/12 09:23:05;;;;;;;14.70;5.80;;;10.40;99.90;;;;;;5012952;28;20402;-66
2023/02/12 09:25:33;;;;;;;17.80;5.72;;;10.50;99.90;;;;;;5015759;28;20428;-66
2023/02/12 09:27:59;;;;;;;14.50;5.57;;;10.50;99.90;;;;;;5033223;28;20040;-66
2023/02/12 09:30:25;;;;;;;11.70;4.75;;;10.50;99.90;;;;;;5018103;28;20042;-66
2023/02/12 09:32:51;;;;;;;11.13;4.45;;;10.60;99.90;;;;;;5020575;28;20396;-66
2023/02/12 09:35:17;;;;;;;16.50;5.68;;;10.60;99.90;;;;;;5032655;28;20037;-66
2023/02/12 09:37:43;;;;;;;14.98;5.55;;;10.60;99.90;;;;;;5023089;28;20405;-65
2023/02/12 09:40:20;;;;;;;11.68;4.55;;;10.70;99.90;;;;;;5026585;28;20323;-66
2023/02/12 09:42:59;;;;;;;15.35;5.03;;;10.70;99.90;;;;;;5028345;28;20153;-64
2023/02/12 09:45:28;;;;;;;11.02;5.63;;;10.80;99.90;;;;;;5029253;28;20030;-65
2023/02/12 09:48:32;;;;;;;11.75;5.05;;;10.80;99.90;;;;;;5011310;28;20029;-66
2023/02/12 09:51:01;;;;;;;12.80;5.22;;;10.90;99.90;;;;;;5001876;28;20071;-66
2023/02/12 09:53:30;;;;;;;11.57;5.13;;;10.90;99.90;;;;;;5020200;28;20029;-66
2023/02/12 09:55:56;;;;;;;12.50;5.38;;;11.00;99.90;;;;;;5014580;28;20107;-66
2023/02/12 09:58:37;;;;;;;13.50;5.30;;;11.00;99.90;;;;;;5017421;28;20057;-66
2023/02/12 10:01:14;;;;;;;17.88;6.38;;;11.10;99.90;;;;;;5027844;28;20103;-65
2023/02/12 10:03:41;;;;;;;14.48;5.35;;;11.10;99.90;;;;;;5014030;28;20040;-66
2023/02/12 10:06:13;;;;;;;13.20;5.70;;;11.10;99.90;;;;;;5021035;28;20469;-65
2023/02/12 10:08:58;;;;;;;12.35;4.97;;;11.10;99.90;;;;;;5030930;28;20033;-66
2023/02/12 10:11:29;;;;;;;11.18;4.80;;;11.10;99.90;;;;;;5023742;28;20428;-66
2023/02/12 10:14:23;;;;;;;9.65;4.45;;;11.10;99.90;;;;;;5031080;28;20188;-66
2023/02/12 10:17:00;;;;;;;10.30;5.32;;;11.20;99.90;;;;;;5020603;28;20033;-66
2023/02/12 10:20:00;;;;;;;13.48;6.55;;;11.20;99.90;;;;;;5013251;28;20030;-66
2023/02/12 10:22:41;;;;;;;10.55;5.60;;;11.20;99.90;;;;;;5020818;28;20040;-66
2023/02/12 10:25:25;;;;;;;14.50;6.75;;;11.20;99.90;;;;;;5030296;28;20021;-66
2023/02/12 10:27:54;;;;;;;18.73;7.13;;;11.30;99.90;;;;;;5032177;28;20029;-66
2023/02/12 10:30:29;;;;;;;11.93;5.95;;;11.30;99.90;;;;;;5035515;28;20073;-66
2023/02/12 10:33:04;;;;;;;12.95;6.82;;;11.30;99.90;;;;;;5022893;28;20719;-66
2023/02/12 10:35:31;;;;;;;;;;;11.40;99.90;;;;;;5012339;28;20033;-66
2023/02/12 10:38:22;;;;;;;11.88;6.47;;;11.40;99.90;;;;;;5012366;28;19917;-66
2023/02/12 10:40:49;;;;;;;13.98;6.95;;;11.40;99.90;;;;;;5014064;28;20041;-66
2023/02/12 10:43:15;;;;;;;15.43;6.85;;;11.50;99.90;;;;;;5028557;28;20120;-66
2023/02/12 10:45:42;;;;;;;16.65;9.18;;;11.50;99.90;;;;;;5027944;28;20105;-66
2023/02/12 10:48:10;;;;;;;18.83;8.02;;;11.50;99.90;;;;;;5021497;28;20021;-66
2023/02/12 10:51:02;;;;;;;11.63;6.18;;;11.50;99.90;;;;;;5013170;28;20123;-66
2023/02/12 10:53:33;;;;;;;21.85;12.50;;;11.60;99.90;;;;;;5014794;28;20041;-66
2023/02/12 10:56:11;;;;;;;21.45;11.75;;;11.50;99.90;;;;;;5009664;28;20034;-66
2023/02/12 10:58:58;;;;;;;19.45;9.38;;;11.50;99.90;;;;;;5031771;28;20029;-66
2023/02/12 11:01:38;;;;;;;22.15;10.00;;;11.50;99.90;;;;;;5028420;28;20037;-66
2023/02/12 11:04:19;;;;;;;13.63;7.40;;;11.50;99.90;;;;;;5026126;28;20539;-66
2023/02/12 11:07:03;;;;;;;13.73;6.00;;;11.50;99.90;;;;;;5015066;28;20038;-65
2023/02/12 11:09:44;;;;;;;15.13;7.95;;;11.50;99.90;;;;;;5020826;28;20044;-65
2023/02/12 11:12:35;;;;;;;11.80;6.07;;;11.40;99.90;;;;;;5019135;28;20049;-65
2023/02/12 11:15:17;;;;;;;11.85;6.10;;;11.40;99.90;;;;;;5014089;28;20104;-65
2023/02/12 11:17:53;;;;;;;9.90;6.10;;;11.30;99.90;;;;;;5011620;28;20066;-66
2023/02/12 11:20:24;;;;;;;12.30;6.45;;;11.40;99.90;;;;;;5023722;28;20029;-64
2023/02/12 11:22:59;;;;;;;13.13;6.15;;;11.40;99.90;;;;;;5026797;28;20038;-65
2023/02/12 11:25:34;;;;;;;12.35;6.35;;;11.40;99.90;;;;;;5023428;28;20088;-65
2023/02/12 11:28:16;;;;;;;13.13;6.28;;;11.40;99.90;;;;;;5039970;28;20546;-66
2023/02/12 11:31:11;;;;;;;10.25;6.60;;;11.40;99.90;;;;;;5016619;28;20033;-65
2023/02/12 11:33:37;;;;;;;11.80;6.20;;;11.30;99.90;;;;;;5006352;28;20045;-64
2023/02/12 11:36:20;;;;;;;9.40;5.55;;;11.20;99.90;;;;;;5028110;28;20112;-63
2023/02/12 11:38:55;;;;;;;10.10;6.10;;;11.20;99.90;;;;;;5012061;28;20088;-65
2023/02/12 11:41:35;;;;;;;11.63;6.50;;;11.10;99.90;;;;;;5022228;28;20033;-65
2023/02/12 11:44:11;;;;;;;10.05;5.70;;;11.10;99.90;;;;;;5011990;28;20037;-64
2023/02/12 11:46:38;;;;;;;11.45;6.60;;;11.10;99.90;;;;;;5017513;28;20040;-64
2023/02/12 11:49:05;;;;;;;14.10;7.65;;;11.10;99.90;;;;;;5025579;28;20030;-64
2023/02/12 11:51:31;;;;;;;12.95;6.38;;;11.10;99.90;;;;;;5010594;28;20420;-65
2023/02/12 11:54:01;;;;;;;9.38;5.85;;;11.20;99.90;;;;;;5021338;28;20034;-64
2023/02/12 11:56:45;;;;;;;10.90;6.93;;;11.10;99.90;;;;;;5012400;28;20073;-63
2023/02/12 11:59:29;;;;;;;11.00;6.32;;;11.10;99.90;;;;;;5013731;28;20053;-64
2023/02/12 12:01:59;;;;;;;15.90;7.70;;;11.00;99.90;;;;;;5021570;28;20109;-64
2023/02/12 12:04:28;;;;;;;12.82;6.30;;;11.00;99.90;;;;;;5011246;28;20037;-64
2023/02/12 12:07:08;;;;;;;12.88;6.45;;;11.00;99.90;;;;;;5023382;28;20018;-65
2023/02/12 12:09:49;;;;;;;15.07;7.13;;;11.00;99.90;;;;;;5016468;28;20113;-64
2023/02/12 12:12:43;;;;;;;13.68;7.38;;;11.00;99.90;;;;;;5019717;28;20124;-64
2023/02/12 12:21:44;;;;;;;11.75;6.75;;;10.80;99.90;;;;;;4988214;28;20544;-63
2023/02/12 12:24:21;;;;;;;12.05;6.95;;;10.90;99.90;;;;;;5021834;28;20025;-63
2023/02/12 12:26:59;;;;;;;10.63;5.80;;;10.90;99.90;;;;;;5020193;28;20045;-63
2023/02/12 12:29:50;;;;;;;10.20;6.43;;;10.90;99.90;;;;;;5006832;28;20061;-63
2023/02/12 12:32:18;;;;;;;13.63;8.10;;;10.90;99.90;;;;;;5024002;28;20536;-63
2023/02/12 12:34:44;;;;;;;16.67;8.32;;;10.90;99.90;;;;;;5029632;28;20037;-63
2023/02/12 12:37:19;;;;;;;11.65;7.78;;;10.80;99.90;;;;;;5001564;28;20397;-63
2023/02/12 12:40:02;;;;;;;14.30;7.85;;;10.90;99.90;;;;;;5027752;28;20026;-63
2023/02/12 12:42:46;;;;;;;14.10;7.72;;;10.90;99.90;;;;;;5017572;28;20079;-64
2023/02/12 12:45:17;;;;;;;16.23;8.45;;;10.90;99.90;;;;;;5022166;28;20033;-63
2023/02/12 12:47:58;;;;;;;14.07;8.15;;;10.90;99.90;;;;;;5010844;28;20026;-63
2023/02/12 12:50:53;;;;;;;14.15;8.07;;;10.80;99.90;;;;;;5022225;28;20034;-64
2023/02/12 12:53:49;;;;;;;10.85;6.60;;;10.90;99.90;;;;;;5017768;28;20028;-65
2023/02/12 12:56:47;;;;;;;11.85;7.18;;;10.90;99.90;;;;;;5013018;28;20047;-63
2023/02/12 12:59:32;;;;;;;11.15;6.95;;;11.00;99.90;;;;;;5016359;28;20049;-64
2023/02/12 13:02:37;;;;;;;13.13;6.93;;;11.00;99.90;;;;;;5028219;28;20068;-64
2023/02/12 13:05:11;;;;;;;12.40;6.60;;;11.10;99.90;;;;;;5013680;28;20292;-62
2023/02/12 13:08:06;;;;;;;14.57;7.93;;;11.20;99.90;;;;;;5022588;28;20025;-62
2023/02/12 13:10:34;;;;;;;12.40;8.00;;;11.20;99.90;;;;;;5010921;28;20050;-64
2023/02/12 13:13:18;;;;;;;12.18;7.93;;;11.30;99.90;;;;;;5019605;28;20647;-63
2023/02/12 13:15:54;;;;;;;14.82;7.70;;;11.30;99.90;;;;;;5021865;28;20033;-63
2023/02/12 13:18:33;;;;;;;10.55;6.65;;;11.30;99.90;;;;;;4999301;28;20022;-63